Date,TemperatureHighF,TemperatureAvgF,TemperatureLowF,DewpointHighF,DewpointAvgF,DewpointLowF,HumidityHigh,HumidityAvg,HumidityLow,PressureMaxIn,PressureMinIn,WindSpeedMaxMPH,WindSpeedAvgMPH,GustSpeedMaxMPH,PrecipitationSumIn
2013-1-1,30.1,26.7,19.0,27.8,22.6,15.5,92,84,75,29.32,29.19,12,4,12,0.00
2013-1-2,22.5,15.3,8.3,15.5,9.0,4.6,91,76,62,29.40,29.29,15,4,15,0.00
2013-1-3,30.5,24.2,15.0,25.9,17.9,7.3,84,76,65,29.42,29.30,22,8,23,0.00
2013-1-4,29.0,22.9,15.7,23.0,17.7,11.7,92,80,73,29.45,29.38,27,10,27,0.01
2013-1-5,35.9,28.4,20.8,32.4,24.3,18.1,92,85,75,29.44,29.22,26,6,26,0.01
2013-1-6,36.3,31.1,24.3,31.9,26.8,20.0,90,84,82,29.48,29.12,28,10,29,0.00
2013-1-7,34.4,27.2,18.9,28.6,23.0,16.9,100,84,75,29.57,29.33,31,5,31,0.00
2013-1-8,39.9,33.0,26.1,31.3,26.6,22.2,92,77,67,29.41,29.31,20,4,21,0.01
2013-1-9,46.9,41.4,35.4,36.1,33.4,25.2,81,73,60,29.65,29.27,24,9,27,0.01
2013-1-10,40.0,36.0,28.2,37.4,30.1,23.8,93,79,63,29.67,29.19,15,4,18,0.02
2013-1-11,56.7,50.9,39.5,53.0,47.3,37.1,95,88,76,29.19,28.92,27,7,29,0.02
2013-1-12,59.9,53.2,47.9,53.1,49.5,44.7,95,87,76,29.13,28.89,19,4,21,0.03
2013-1-13,52.7,35.9,21.4,51.3,33.8,17.3,99,92,84,29.35,28.89,25,10,27,0.00
2013-1-14,22.2,19.1,15.3,18.1,15.0,10.9,94,84,80,29.60,29.35,22,7,24,0.01
2013-1-15,28.8,19.9,16.7,21.8,16.7,14.0,91,88,71,29.56,29.47,13,3,14,0.01
2013-1-16,34.7,34.6,34.4,27.8,27.5,27.3,76,75,74,29.19,29.18,13,10,20,0.07
2013-1-17,36.9,31.0,22.6,29.6,24.0,15.9,92,75,57,29.54,29.19,25,7,25,0.08
2013-1-18,40.0,29.6,21.7,27.1,20.3,15.3,81,69,50,29.60,29.21,36,8,37,0.08
2013-1-19,49.8,43.3,38.4,36.9,31.8,26.8,74,64,56,29.22,28.97,41,14,41,0.03
2013-1-20,43.9,25.4,19.7,34.8,14.0,8.5,74,61,52,29.41,28.99,40,13,45,0.03
2013-1-21,20.6,14.2,8.2,11.7,3.5,-3.6,92,62,49,29.39,29.25,31,14,34,0.00
2013-1-22,13.1,8.6,4.2,0.2,-1.9,-4.3,78,62,52,29.51,29.38,26,10,27,0.00
2013-1-23,21.1,15.7,10.7,13.9,6.2,0.2,80,66,53,29.48,29.24,30,8,30,0.00
2013-1-24,21.7,17.9,11.1,15.1,8.6,4.4,89,68,48,29.74,29.30,24,5,24,0.00
2013-1-25,27.0,22.2,18.6,22.3,16.6,10.2,89,79,66,29.57,29.16,18,5,18,0.00
2013-1-26,27.7,25.4,22.0,22.2,18.5,16.0,86,75,68,29.58,29.21,20,6,20,0.01
2013-1-27,35.4,28.1,19.1,33.6,23.4,15.0,93,82,74,29.58,29.21,18,4,18,0.01
2013-1-28,50.5,46.1,35.3,49.3,44.8,33.5,97,95,93,29.23,29.09,36,7,36,0.02
2013-1-29,61.2,55.2,48.5,57.6,53.3,47.7,97,94,87,29.11,28.55,34,8,36,0.03
2013-1-30,63.6,46.0,28.5,58.8,43.8,24.5,96,92,81,28.70,28.40,37,11,39,0.00
2013-1-31,28.5,20.0,9.9,24.5,14.4,2.8,89,78,68,29.22,28.69,39,16,39,0.00
2013-2-1,16.1,10.6,5.1,9.9,3.9,-0.8,83,74,68,29.52,29.22,29,11,30,0.00
2013-2-2,25.8,21.6,16.1,22.6,18.3,9.6,98,87,75,29.39,29.12,24,7,28,0.00
2013-2-3,21.7,17.0,11.8,16.9,12.7,6.4,89,83,77,29.22,29.09,24,8,27,0.00
2013-2-4,33.5,25.2,18.3,27.2,21.4,14.5,92,86,75,29.22,28.96,12,3,12,0.03
2013-2-5,33.4,26.4,17.3,31.0,23.0,15.2,94,87,74,29.18,28.96,20,5,24,0.03
2013-2-6,35.7,31.3,28.7,26.9,24.5,22.8,85,76,64,29.42,29.18,20,4,20,0.01
2013-2-7,47.3,37.4,30.0,39.0,32.1,26.5,94,81,68,29.36,28.95,14,3,15,0.01
2013-2-8,40.4,33.0,29.2,38.8,28.2,22.3,94,82,71,29.50,28.95,27,11,29,0.00
2013-2-9,38.2,29.9,20.9,27.8,24.1,18.6,92,79,65,29.57,29.34,14,2,16,0.08
2013-2-10,49.0,41.6,31.4,47.6,35.0,24.9,98,77,65,29.34,28.82,29,7,33,0.02
2013-2-11,50.1,38.6,32.1,47.2,31.1,24.3,93,74,66,29.16,28.80,39,16,43,0.03
2013-2-12,35.6,31.3,28.6,28.4,25.3,22.7,84,78,72,29.27,29.09,26,8,26,0.01
2013-2-13,44.2,34.4,24.9,31.5,27.4,21.9,90,76,57,29.10,28.91,14,4,15,0.01
2013-2-14,43.6,37.7,33.8,36.6,32.1,26.8,92,81,69,29.12,28.91,34,10,39,0.00
2013-2-15,34.2,29.6,23.5,27.7,23.4,17.5,90,77,60,29.32,29.11,21,6,22,0.01
2013-2-16,24.6,21.1,16.3,20.1,14.0,5.1,86,74,50,29.29,29.23,25,8,25,0.01
2013-2-17,28.6,21.2,13.6,15.3,11.9,7.8,82,68,48,29.38,29.28,18,4,20,0.01
2013-2-18,53.9,38.7,23.4,42.7,28.9,14.5,88,68,55,29.30,28.71,43,7,46,0.04
2013-2-19,45.4,23.1,16.8,43.1,18.2,10.5,92,81,73,29.25,28.67,37,18,42,0.04
2013-2-20,22.8,18.4,11.1,17.7,11.8,5.9,81,75,70,29.47,29.25,22,10,23,0.00
2013-2-21,27.4,24.9,22.8,21.5,19.0,17.1,90,78,73,29.51,29.22,23,8,25,0.00
2013-2-22,35.6,30.2,23.1,33.7,28.1,20.8,95,92,87,29.22,29.01,25,7,25,0.14
2013-2-23,31.1,28.2,26.3,27.5,22.8,20.7,92,80,72,29.14,29.07,22,9,22,0.14
2013-2-24,36.1,29.4,22.4,25.5,22.2,18.6,92,75,60,29.31,29.12,16,5,18,0.06
2013-2-25,41.8,33.1,23.2,29.9,26.1,20.8,92,76,59,29.35,29.11,22,5,24,0.04
2013-2-26,34.8,33.6,32.1,33.5,30.2,26.1,95,87,73,29.11,28.60,29,8,30,0.66
2013-2-27,35.0,33.5,31.5,33.9,31.9,29.8,96,94,91,28.80,28.62,22,10,26,0.27
2013-2-28,32.0,32.0,32.0,30.7,30.7,30.7,95,95,95,28.79,28.79,6,6,16,0.27
2013-3-4,36.3,33.8,30.6,28.9,25.3,20.6,93,72,53,29.22,29.16,13,4,14,0.00
2013-3-5,34.1,31.1,28.0,30.9,28.8,26.5,100,91,81,29.18,28.85,23,9,24,0.00
2013-3-6,34.3,30.9,26.9,30.7,28.6,25.6,95,91,82,29.40,28.94,26,9,28,0.11
2013-3-7,37.0,33.7,30.9,31.2,29.0,23.8,93,83,66,29.56,29.40,13,6,13,0.06
2013-3-8,39.6,31.9,22.4,26.4,23.7,20.0,98,73,55,29.64,29.53,10,2,11,0.00
2013-3-9,48.9,37.0,27.5,37.2,30.7,23.0,92,78,62,29.54,29.11,19,3,21,0.03
2013-3-10,63.2,55.2,48.5,45.4,40.0,36.2,69,57,44,29.11,28.90,27,7,29,0.00
2013-3-11,57.1,45.3,34.2,48.7,41.2,31.8,96,86,56,28.97,28.74,36,9,36,0.12
2013-3-12,37.4,33.6,30.9,31.9,27.8,23.8,93,79,63,29.15,28.96,30,12,30,0.00
2013-3-13,32.2,28.5,26.1,28.0,19.9,15.3,89,71,52,29.45,29.14,28,12,30,0.00
2013-3-14,40.0,31.8,23.6,30.2,20.9,16.8,85,65,44,29.48,29.29,19,6,22,0.00
2013-3-15,47.9,38.9,30.9,41.3,34.7,28.8,94,85,67,29.29,28.94,20,5,21,0.06
2013-3-16,44.6,37.6,31.6,40.7,35.1,27.2,96,91,80,29.24,28.78,18,7,21,0.02
2013-3-17,36.6,31.4,29.5,27.4,24.8,22.9,85,76,64,29.34,29.20,22,8,23,0.00
2013-3-18,38.2,33.0,29.2,37.1,30.4,23.3,96,90,70,29.20,28.71,32,10,36,0.20
2013-3-19,36.2,29.1,22.9,23.6,17.9,13.2,78,63,49,29.22,28.94,40,18,42,0.00
2013-3-20,32.1,25.8,21.2,19.2,13.3,7.6,79,59,44,29.22,29.14,29,12,31,0.00
2013-3-21,33.9,24.4,16.8,18.4,14.6,11.1,92,67,43,29.17,29.12,22,8,23,0.00
2013-3-22,40.9,31.0,21.6,21.4,18.4,16.5,83,61,38,29.21,29.14,19,5,21,0.00
2013-3-23,42.7,33.6,26.9,27.5,22.9,17.1,81,65,50,29.26,29.11,14,4,15,0.00
2013-3-24,36.2,32.0,28.5,28.6,25.5,23.0,94,77,62,29.14,28.68,36,11,38,0.00
2013-3-25,34.9,31.2,28.3,32.7,29.3,26.7,96,93,84,29.14,28.71,21,11,23,0.05
2013-3-26,38.3,34.5,31.2,31.2,29.2,24.3,93,82,58,29.37,29.13,19,8,22,0.00
2013-3-27,41.3,34.8,28.5,30.8,27.6,25.4,89,76,57,29.45,29.37,22,8,23,0.00
2013-3-28,47.1,37.6,28.5,31.4,27.5,23.9,87,68,48,29.50,29.43,15,6,18,0.00
2013-3-29,52.0,42.0,30.9,32.1,28.2,22.9,92,60,36,29.48,29.37,14,3,15,0.00
2013-3-30,54.9,44.6,28.9,36.6,30.2,21.8,83,58,43,29.39,29.09,20,3,23,0.00
2013-3-31,59.7,50.0,41.0,45.0,39.3,31.9,95,68,43,29.09,28.87,25,8,29,0.00
2013-4-1,40.8,36.3,30.5,33.5,23.0,16.4,77,60,40,29.30,28.98,23,9,24,0.00
2013-4-2,43.4,33.3,25.8,22.2,16.6,10.4,75,53,27,29.43,29.30,23,6,25,0.00
2013-4-3,47.0,36.4,24.6,22.6,15.8,11.7,77,45,24,29.59,29.43,18,3,19,0.00
2013-4-4,55.6,43.9,29.6,23.6,20.4,15.7,68,41,24,29.49,29.14,14,3,20,0.00
2013-4-5,53.7,45.3,36.7,35.1,26.3,17.2,75,49,25,29.33,29.12,21,7,22,0.00
2013-4-6,65.8,51.0,35.4,41.1,31.7,25.6,70,49,34,29.32,28.93,33,7,36,0.00
2013-4-7,66.0,58.2,49.7,46.2,42.4,38.5,85,57,39,29.13,28.88,28,10,39,0.01
2013-4-8,73.5,58.6,46.3,58.1,48.3,37.6,91,69,50,29.14,28.93,39,9,48,0.05
2013-4-9,78.3,65.3,52.6,61.4,54.3,46.6,81,69,49,29.17,29.02,39,8,44,0.00
2013-4-10,73.4,62.2,48.3,66.5,57.7,46.9,95,85,72,29.07,28.94,21,7,28,0.80
2013-4-11,51.0,46.8,42.2,49.6,45.6,41.1,100,95,94,29.03,28.74,43,8,48,0.38
2013-4-12,43.8,40.9,38.4,42.7,36.0,31.0,96,83,70,29.05,28.75,28,12,30,0.10
2013-4-13,44.5,40.6,36.0,36.8,33.5,29.3,91,76,62,29.17,29.04,30,10,32,0.07
2013-4-14,68.4,51.7,40.9,52.1,42.2,35.1,84,71,49,29.20,28.99,16,3,20,0.07
2013-4-15,64.2,60.1,53.8,57.1,52.1,45.8,85,75,56,29.10,28.99,31,6,31,0.05
2013-4-16,62.8,50.5,45.6,55.2,46.0,40.1,95,85,70,29.39,29.05,23,6,24,0.03
2013-4-17,59.8,51.3,46.7,56.6,46.4,39.8,94,83,74,29.40,29.08,31,8,31,0.02
2013-4-18,71.8,58.7,48.0,66.0,56.4,44.3,96,92,73,29.09,28.72,27,5,36,0.03
2013-4-19,60.9,40.1,35.9,59.7,34.5,29.8,96,81,68,29.06,28.68,39,15,40,0.02
2013-4-20,44.1,38.1,32.8,32.4,27.4,23.2,92,67,45,29.59,29.07,31,9,31,0.01
2013-4-21,50.9,40.1,29.6,34.2,25.9,20.8,77,58,38,29.70,29.54,18,4,20,1.67
2013-4-22,65.9,50.3,33.9,39.1,34.8,28.9,90,60,32,29.55,29.27,15,4,20,0.07
2013-4-23,59.3,54.0,50.1,45.1,41.5,38.6,67,62,55,29.28,29.18,16,3,22,0.00
2013-5-28,79.8,72.6,63.2,69.3,66.1,61.7,96,80,68,29.11,29.02,36,8,38,0.01
2013-5-29,83.3,76.7,70.8,67.6,64.5,61.2,79,66,52,29.18,29.08,28,8,31,0.00
2013-5-30,85.0,77.0,69.9,70.9,66.2,62.4,80,70,54,29.23,29.09,38,7,39,0.02
2013-5-31,75.9,71.7,64.8,69.3,66.7,61.6,94,84,72,29.16,29.02,26,6,28,0.02
2013-6-1,72.9,68.7,63.6,69.2,64.0,62.1,96,85,72,29.06,28.92,40,7,40,0.01
2013-6-2,68.5,61.6,50.5,63.6,56.6,43.3,91,84,73,29.19,28.91,23,8,25,0.00
2013-6-3,67.7,57.2,45.5,48.6,43.8,37.3,92,64,41,29.27,29.17,15,5,16,0.04
2013-6-4,72.9,62.7,48.7,52.9,48.3,45.6,91,62,39,29.34,29.25,13,3,18,0.05
2013-6-5,77.6,66.8,55.0,54.8,50.6,45.3,72,57,40,29.28,29.08,13,5,16,0.05
2013-6-6,75.8,65.2,58.5,58.4,52.2,44.5,76,63,49,29.10,28.99,14,5,15,0.00
2013-6-7,73.1,64.2,57.9,57.8,55.0,53.1,91,73,51,29.08,29.01,13,4,15,0.00
2013-6-8,76.5,67.2,53.4,59.0,54.4,51.1,93,66,43,29.19,29.08,18,2,19,0.00
2013-6-9,80.2,71.8,64.5,65.9,61.2,56.1,93,71,45,29.22,29.03,15,2,19,0.00
2013-6-10,76.3,69.6,63.3,65.3,63.7,61.5,96,82,64,29.04,28.93,19,6,24,0.02
2013-6-11,82.2,70.8,60.7,67.8,64.0,59.5,97,81,54,29.13,28.99,24,4,24,0.01
2013-6-12,85.5,74.5,67.7,75.3,70.0,65.6,95,86,69,29.09,28.92,27,2,27,0.01
2013-6-17,84.3,81.0,73.5,67.3,63.4,58.3,79,56,43,29.11,29.06,11,3,12,0.00
2013-6-18,79.3,72.9,66.1,66.8,62.5,57.8,88,70,51,29.21,29.05,14,5,16,0.00
2013-6-19,78.5,68.5,57.7,58.9,55.5,51.9,88,65,44,29.32,29.20,13,3,13,0.00
2013-6-20,83.6,72.1,59.2,67.5,61.1,54.1,85,69,51,29.37,29.29,14,2,15,0.00
2013-6-21,85.5,76.2,67.0,66.5,62.8,58.0,81,64,42,29.37,29.16,26,4,28,0.00
2013-6-22,86.8,76.2,70.2,74.9,68.5,63.7,85,77,58,29.31,29.18,29,4,32,0.00
2013-6-23,86.0,74.6,67.2,72.0,67.4,64.0,95,80,52,29.29,29.18,30,4,36,0.00
2013-6-24,85.1,75.2,67.4,72.4,68.2,63.4,94,80,59,29.30,29.13,53,6,53,0.05
2013-6-25,88.1,78.2,67.2,74.9,69.7,65.0,94,76,53,29.20,29.02,26,7,29,0.02
2013-6-26,80.3,71.5,67.8,75.0,68.6,64.8,95,91,81,29.10,28.92,25,2,39,0.00
2013-6-27,83.4,75.5,70.8,72.7,70.0,67.3,97,84,67,28.98,28.86,16,5,20,0.00
2013-6-28,79.5,71.6,64.8,69.1,64.2,58.0,93,79,49,28.88,28.77,38,6,44,0.00
2013-6-29,73.4,66.8,62.2,66.1,63.2,61.0,97,88,75,28.88,28.76,12,2,15,0.00
2013-6-30,72.5,66.8,62.1,64.7,62.2,60.1,96,86,69,29.09,28.88,20,6,21,0.00
2013-7-1,73.1,67.3,62.7,63.8,60.7,56.4,90,79,70,29.19,29.08,23,8,23,0.00
2013-7-2,74.7,65.6,60.1,68.0,62.0,56.8,95,89,76,29.21,29.15,14,5,18,0.00
2013-7-3,77.8,70.7,64.0,67.9,64.8,63.1,97,83,62,29.27,29.17,23,4,30,0.00
2013-7-4,78.1,70.6,63.3,66.9,62.7,56.5,97,78,49,29.33,29.25,9,1,9,0.00
2013-7-5,79.8,73.3,67.1,68.6,66.9,64.7,95,81,64,29.31,29.23,19,2,19,0.00
2013-7-6,76.7,71.7,68.6,70.7,68.2,66.9,95,89,74,29.29,29.19,15,2,18,0.00
2013-7-7,81.4,73.4,65.5,71.6,67.7,64.0,96,83,64,29.26,29.18,19,4,19,0.00
2013-7-8,82.5,76.0,70.8,75.2,70.6,67.5,92,83,74,29.27,29.17,20,5,23,0.00
2013-7-9,85.3,80.4,74.2,76.8,73.9,71.0,90,81,72,29.21,29.10,19,6,20,0.00
2013-7-10,83.6,76.9,65.0,76.9,71.1,59.7,94,82,70,29.19,29.01,43,8,48,0.00
2013-7-11,78.9,68.7,59.3,61.5,58.0,54.1,89,70,45,29.26,29.16,16,5,19,0.00
2013-7-12,80.0,70.2,58.3,63.7,58.8,54.8,91,69,44,29.32,29.23,15,3,15,0.00
2013-7-13,82.0,72.3,60.4,68.8,63.9,57.7,92,76,60,29.35,29.28,16,4,18,0.00
2013-7-14,86.7,77.2,66.8,75.3,70.3,65.3,96,80,62,29.40,29.33,11,3,11,0.00
2013-7-15,87.9,79.7,72.9,75.7,73.0,71.3,95,81,59,29.48,29.39,14,2,16,0.00
2013-7-16,89.2,81.4,72.1,75.2,72.6,69.9,94,76,58,29.53,29.45,10,2,11,0.00
2013-7-17,89.3,82.1,73.4,75.2,73.0,70.1,92,75,54,29.53,29.37,12,3,13,0.00
2013-7-18,90.5,83.2,74.4,76.5,73.8,70.1,91,74,53,29.40,29.20,14,4,16,0.00
2013-7-19,90.0,83.0,74.9,76.5,74.1,71.6,90,75,60,29.21,29.01,26,7,30,0.00
2013-7-31,72.1,70.0,67.0,69.1,67.5,64.9,96,92,89,29.20,29.12,12,4,14,0.00
2013-8-1,78.2,69.4,62.6,66.8,61.9,57.5,97,79,50,29.18,29.12,22,5,26,0.00
2013-8-2,81.2,68.6,60.0,70.4,63.0,57.0,95,83,63,29.17,29.04,33,4,36,0.00
2013-8-3,78.7,70.1,63.3,66.9,62.1,54.6,96,77,49,29.26,29.12,19,5,19,0.00
2013-8-4,75.6,66.2,55.6,59.6,55.9,51.8,92,71,45,29.36,29.26,14,4,14,0.00
2013-8-5,74.7,66.7,58.5,64.6,59.6,55.4,92,78,60,29.31,29.13,14,2,16,0.00
2013-8-6,76.9,69.8,63.8,70.5,65.0,59.7,90,85,78,29.14,29.08,14,2,14,0.00
2013-8-7,81.8,75.9,70.2,73.6,71.3,68.2,96,86,74,29.10,29.03,20,4,20,0.00
2013-8-8,75.6,72.1,68.0,71.5,68.6,66.5,95,89,81,29.16,29.09,11,4,12,0.00
2013-8-9,79.8,72.1,64.7,68.2,64.9,61.5,94,79,54,29.22,29.12,11,2,11,0.00
2013-8-10,81.6,73.4,66.7,70.4,66.0,61.8,92,78,52,29.28,29.21,13,3,15,0.00
2013-8-11,80.0,71.7,61.6,66.5,63.6,60.1,96,77,54,29.31,29.24,11,2,13,0.00
2013-8-12,82.3,73.2,64.5,70.1,66.3,61.7,92,80,60,29.27,29.05,16,3,19,0.00
2013-8-13,70.3,64.6,56.0,67.2,56.0,48.1,95,75,49,29.29,29.06,21,8,22,0.00
2013-8-14,70.3,59.3,48.9,53.2,49.5,46.4,92,72,48,29.39,29.29,14,4,15,0.00
2013-8-15,74.3,61.9,49.7,57.3,52.0,48.0,95,73,44,29.38,29.28,10,1,10,0.00
2013-8-16,75.3,66.6,58.1,61.6,58.2,55.8,93,76,52,29.37,29.30,9,1,10,0.00
2013-8-17,77.3,66.5,56.6,61.8,57.9,54.1,94,75,50,29.42,29.34,14,2,14,0.00
2013-8-18,82.5,69.8,58.1,66.7,60.2,55.6,94,74,47,29.38,29.28,11,1,11,0.00
2013-8-19,81.3,70.9,59.2,66.6,62.6,57.4,95,77,55,29.32,29.24,12,2,14,0.00
2013-8-20,83.8,74.1,62.1,69.5,65.0,60.0,94,75,50,29.35,29.26,11,1,12,0.00
2013-8-21,84.9,75.3,67.1,72.1,67.4,63.6,89,77,55,29.34,29.20,15,2,19,0.00
2013-8-22,77.5,71.9,67.9,71.6,67.9,65.7,93,87,79,29.30,29.19,22,4,27,0.05
2013-8-23,82.4,72.4,63.3,69.6,63.1,57.2,97,75,46,29.35,29.25,13,3,15,0.00
2013-8-24,81.7,69.6,57.1,61.6,57.8,53.8,92,69,41,29.48,29.35,11,2,14,0.00
2013-8-25,84.9,72.8,59.3,65.6,61.8,56.9,93,71,46,29.49,29.38,15,3,15,0.00
2013-8-26,85.6,76.1,64.0,72.8,67.4,59.6,86,75,58,29.41,29.24,16,5,19,0.00
2013-8-27,88.8,79.7,72.9,76.9,72.3,68.9,89,79,61,29.24,29.10,19,6,20,0.00
2013-8-28,85.0,79.4,73.4,76.3,72.2,69.0,92,79,71,29.19,29.07,19,7,22,0.00
2013-8-29,87.5,76.7,68.2,73.1,70.0,66.8,96,81,55,29.26,29.18,10,2,10,0.00
2013-8-30,89.2,77.6,65.1,74.2,69.4,63.6,96,77,54,29.19,28.93,21,4,21,0.00
2013-8-31,80.5,73.1,69.5,74.0,69.4,66.7,95,88,69,29.07,28.94,12,3,14,0.03
2013-9-1,76.7,71.8,68.1,71.3,69.2,66.9,96,91,82,29.00,28.95,14,3,14,0.01
2013-9-2,78.7,71.9,60.9,69.1,64.4,56.4,96,79,53,29.15,28.94,20,6,21,0.01
2013-9-3,72.5,62.8,52.5,59.0,55.2,50.4,93,77,58,29.25,29.14,13,3,14,0.00
2013-9-4,79.7,66.9,54.5,61.5,57.9,52.9,96,75,48,29.32,29.23,15,3,15,0.00
2013-9-5,79.2,68.3,58.7,60.7,55.9,46.0,94,68,44,29.40,29.29,12,3,15,0.00
2013-9-6,79.8,65.8,51.0,61.4,53.3,46.8,92,66,42,29.44,29.25,10,1,11,0.00
2013-9-7,85.1,73.7,61.6,68.1,62.0,55.9,83,68,47,29.25,29.10,22,4,22,0.00
2013-9-8,78.9,72.3,65.2,69.5,66.2,62.9,93,81,70,29.20,29.12,18,4,18,0.00
2013-9-9,90.8,76.2,62.4,73.5,67.6,59.8,93,76,54,29.19,29.08,20,4,25,0.00
2013-9-10,94.3,83.9,74.5,73.5,69.9,64.2,90,66,38,29.26,29.14,20,6,22,0.00
2013-9-11,92.7,82.3,74.4,72.2,68.5,62.2,87,65,39,29.29,29.15,22,6,23,0.00
2013-9-12,80.9,72.0,61.4,69.2,63.9,54.0,96,77,46,29.19,29.03,21,6,23,0.04
2013-9-13,65.9,57.7,50.8,54.2,46.9,43.1,86,69,45,29.31,29.18,22,6,23,0.00
2013-9-14,69.4,55.1,42.0,49.7,42.6,32.7,95,67,29,29.39,29.26,11,1,11,0.00
2013-9-15,71.6,58.0,49.0,57.2,50.2,44.2,95,77,45,29.30,29.17,16,2,21,0.00
2013-9-16,65.6,59.1,53.2,55.7,53.8,49.4,95,83,62,29.49,29.28,12,3,15,0.00
2013-9-17,70.8,57.6,46.1,54.5,49.7,44.5,95,77,50,29.53,29.34,14,3,14,0.00
2013-9-18,79.4,65.4,55.4,63.9,55.9,48.6,92,73,47,29.35,29.19,12,2,14,0.00
2013-9-19,75.8,69.5,64.8,70.5,67.0,63.3,97,92,78,29.23,29.07,18,4,18,0.00
2013-9-20,76.8,72.1,65.2,70.1,68.1,61.4,96,87,73,29.11,28.97,20,6,22,0.00
2013-9-21,68.3,60.4,51.9,61.4,52.6,46.8,95,77,48,29.09,28.94,22,7,25,0.00
2013-9-22,66.5,56.9,50.7,50.6,47.0,44.1,94,72,47,29.22,29.09,15,4,15,0.00
2013-9-23,68.1,54.9,43.6,50.6,46.4,41.8,94,75,48,29.31,29.22,12,3,14,0.00
2013-9-24,70.3,57.0,44.9,53.3,47.8,43.2,95,74,46,29.28,29.12,13,3,13,0.00
2013-9-25,73.4,60.7,49.8,54.5,50.7,47.8,94,72,43,29.15,29.08,15,4,15,0.00
2013-9-26,78.1,62.0,50.1,57.7,52.7,48.4,95,75,42,29.28,29.13,12,2,12,0.00
2013-9-27,78.4,63.4,48.4,55.1,50.2,44.8,88,65,37,29.37,29.27,11,3,11,0.01
2013-9-28,80.2,65.6,50.7,58.2,54.1,49.0,95,69,42,29.34,29.18,18,3,21,0.00
2013-9-29,66.5,62.5,55.6,61.1,58.5,53.9,95,87,72,29.20,29.15,15,3,15,0.00
2013-9-30,72.3,59.9,51.8,60.3,56.0,50.9,97,88,61,29.20,29.10,13,2,14,0.00
2013-10-1,72.7,65.0,59.9,63.5,61.1,58.6,96,88,71,29.23,29.15,20,4,26,0.00
2013-10-2,78.5,68.4,62.3,69.1,64.6,60.8,97,88,69,29.28,29.19,12,2,13,0.01
2013-10-3,77.7,71.1,65.4,69.3,66.0,63.6,96,85,69,29.22,29.10,21,3,26,0.00
2013-10-4,83.9,74.3,67.4,70.8,67.3,64.7,92,80,57,29.22,29.14,20,4,21,0.00
2013-10-5,78.2,70.6,65.2,71.2,67.6,63.1,95,90,74,29.20,29.04,20,3,24,0.01
2013-10-6,68.2,60.2,48.9,65.6,56.3,40.8,96,87,64,29.06,28.89,23,6,26,0.00
2013-10-7,61.3,51.7,45.8,49.2,44.6,41.2,89,77,54,29.31,28.96,23,6,25,0.00
2013-10-8,71.6,58.0,46.0,53.6,48.4,44.3,95,73,45,29.43,29.30,14,1,15,0.00
2013-10-9,71.9,57.7,44.4,51.8,46.6,41.9,93,69,40,29.44,29.33,13,2,14,0.00
2013-10-10,74.6,59.7,46.2,53.9,47.9,44.1,94,68,38,29.38,29.26,8,1,9,0.00
2013-10-11,76.1,61.2,46.7,54.6,49.2,44.2,93,68,38,29.30,29.19,10,1,11,0.00
2013-10-12,77.6,64.4,50.5,60.8,53.6,48.2,93,70,41,29.29,29.19,20,2,20,0.00
2013-10-13,67.7,59.4,47.0,61.7,46.3,39.6,86,64,38,29.53,29.29,16,5,16,0.00
2013-10-14,66.5,53.0,40.2,51.3,44.4,38.3,95,75,48,29.54,29.38,16,3,16,0.00
2013-10-15,65.3,56.7,46.6,61.9,53.7,44.4,94,90,84,29.39,29.05,21,3,27,0.00
2013-10-16,63.8,53.8,48.2,61.4,47.5,43.3,92,79,67,29.15,29.04,21,8,23,0.00
2013-10-17,51.2,47.9,45.0,47.6,44.5,41.9,95,88,76,29.13,29.02,22,4,26,0.00
2013-10-18,61.9,48.9,42.5,48.2,42.3,39.0,92,79,50,29.15,29.07,21,5,24,0.00
2013-10-19,52.4,45.7,42.0,41.5,38.8,34.8,94,78,53,29.13,29.01,21,5,27,0.00
2013-10-20,63.8,52.2,42.4,45.0,40.7,36.5,83,66,46,29.12,29.03,33,8,33,0.00
2013-10-21,55.9,49.4,38.7,47.1,41.8,29.0,87,75,64,29.14,29.05,25,7,31,0.00
2013-10-22,47.1,37.7,32.4,35.9,30.1,26.3,94,75,46,29.18,29.06,15,4,19,0.00
2013-10-23,44.6,39.2,34.7,38.1,33.3,27.3,95,81,51,29.19,29.01,23,6,27,0.00
2013-10-24,42.7,38.2,33.3,33.6,29.8,25.9,90,72,57,29.43,29.17,20,6,21,0.00
2013-10-25,47.6,38.1,29.4,31.8,28.1,25.9,92,68,46,29.57,29.36,20,7,22,0.00
2013-10-26,55.3,45.2,39.4,40.3,32.9,27.6,74,62,47,29.36,29.04,30,10,33,0.00
2013-10-27,53.8,43.6,32.8,35.5,32.4,30.2,91,67,42,29.27,29.19,16,3,19,0.00
2013-10-28,60.4,45.6,32.0,38.6,33.1,29.4,92,65,36,29.49,29.24,10,1,12,0.00
2013-10-29,54.7,45.5,35.3,43.0,39.3,33.2,92,80,62,29.55,29.36,10,3,12,0.00
2013-10-30,63.6,55.0,46.2,62.4,50.9,41.6,96,86,73,29.37,29.10,23,2,23,0.00
2013-10-31,63.9,60.9,54.7,62.4,59.2,52.3,96,94,91,29.10,28.44,30,9,40,0.01
2013-11-1,54.8,48.8,45.6,52.5,44.1,41.8,93,84,73,28.91,28.54,32,10,34,0.00
2013-11-2,47.6,45.1,43.1,43.5,42.0,39.8,92,89,81,29.27,28.90,18,7,20,0.00
2013-11-3,50.5,43.3,36.8,41.2,38.5,35.2,96,84,64,29.51,29.26,13,3,13,0.00
2013-11-4,55.2,47.4,39.3,43.7,38.9,35.3,87,73,57,29.52,29.41,18,4,20,0.00
2013-11-5,57.1,52.6,48.1,49.3,45.3,41.7,92,76,61,29.52,29.28,16,3,20,0.00
2013-11-6,57.5,52.4,42.4,53.0,47.5,39.6,98,84,62,29.29,29.02,32,9,37,0.00
2013-11-7,46.8,40.5,33.3,39.6,32.7,26.5,90,75,47,29.42,29.26,23,9,26,0.00
2013-11-8,47.9,38.8,30.6,33.9,31.4,28.2,92,76,55,29.51,29.31,13,4,18,0.00
2013-11-9,60.3,50.7,42.9,42.7,37.5,30.9,70,60,48,29.31,29.10,34,11,37,0.00
2013-11-10,47.8,41.6,36.1,38.7,31.8,27.7,79,68,57,29.48,29.22,29,8,32,0.00
2013-11-11,50.2,40.9,30.0,39.7,33.9,24.1,93,77,60,29.53,29.23,25,8,28,0.00
2013-11-12,34.1,29.1,24.8,27.1,22.8,19.8,85,77,65,29.77,29.53,15,7,18,0.12
2013-11-13,38.2,29.7,21.2,22.2,19.8,17.8,87,68,45,29.75,29.45,25,8,28,0.03
2013-11-14,52.4,40.8,31.2,25.9,23.7,20.6,72,52,30,29.45,29.22,32,10,36,0.28
2013-11-15,51.2,45.6,41.2,36.1,29.6,24.7,75,54,46,29.25,29.18,24,6,25,0.00
2013-11-16,60.1,51.4,42.8,56.7,47.7,36.0,92,87,75,29.21,28.91,33,7,35,0.00
2013-11-17,64.1,58.3,47.2,60.9,53.8,39.7,94,85,66,28.94,28.50,61,14,69,0.22
2013-11-18,47.2,41.7,35.1,39.9,34.1,28.6,85,74,61,29.36,28.89,34,12,34,0.00
2013-11-19,42.9,35.3,30.1,30.4,28.2,25.8,86,76,58,29.51,29.36,12,2,12,0.04
2013-11-20,46.1,36.9,27.5,35.9,30.0,24.5,89,76,64,29.51,29.33,18,2,19,0.00
2013-11-21,48.8,46.6,44.1,47.7,42.2,35.5,96,85,65,29.43,29.33,20,3,21,0.11
2013-11-22,48.8,41.8,31.7,47.7,39.3,28.5,96,91,81,29.59,29.32,24,8,25,0.07
2013-11-23,31.7,26.4,20.3,28.5,21.3,16.1,90,81,68,29.76,29.53,29,11,32,0.01
2013-11-24,26.0,21.3,15.6,18.0,13.8,8.9,94,73,55,29.83,29.63,16,4,18,0.00
2013-11-25,33.1,27.8,20.4,26.5,18.2,12.4,91,67,54,29.63,29.31,26,8,30,0.00
2013-11-26,36.0,31.9,28.6,29.4,26.7,24.7,91,81,72,29.32,29.13,26,6,26,0.04
2013-11-27,28.7,25.6,22.5,25.6,20.7,14.9,90,82,71,29.42,29.16,23,9,25,0.00
2013-11-28,35.0,27.7,22.7,21.3,17.4,14.5,76,65,50,29.60,29.37,24,5,26,0.00
2013-11-29,36.8,28.7,19.7,24.8,20.9,16.2,89,73,56,29.78,29.60,10,1,10,0.04
2013-11-30,49.7,38.1,29.3,32.6,27.6,22.4,79,66,49,29.64,29.28,24,4,27,0.08
2013-12-1,45.8,39.2,33.9,36.8,31.6,27.6,85,74,62,29.28,29.14,13,4,13,0.00
2013-12-2,41.9,36.5,32.8,34.5,31.7,29.3,92,83,69,29.15,28.98,13,4,18,0.00
2013-12-3,49.4,43.0,35.3,46.3,40.7,33.1,100,92,88,29.00,28.92,13,3,15,0.02
2013-12-4,59.5,52.3,43.7,56.8,50.4,42.0,97,93,90,28.99,28.81,20,4,20,0.01
2013-12-5,58.2,36.7,26.7,55.4,31.6,20.0,92,82,74,29.37,28.84,28,11,30,0.01
2013-12-6,28.7,26.9,22.7,23.0,21.0,17.4,85,78,75,29.59,29.33,13,7,15,0.00
2013-12-7,26.6,20.5,15.8,17.4,13.9,11.9,85,76,58,29.77,29.59,14,6,15,0.00
2013-12-8,28.5,23.1,17.5,26.8,18.6,12.7,94,83,71,29.69,29.13,21,6,22,0.00
2013-12-9,29.6,24.4,17.5,28.0,19.6,9.1,94,82,69,29.37,29.10,27,11,28,0.00
2013-12-10,26.2,18.3,7.7,14.5,9.6,1.8,81,69,53,29.46,29.23,34,11,34,0.00
2013-12-11,23.5,18.3,8.3,19.3,13.2,2.6,90,80,70,29.66,29.45,20,6,20,0.00
2013-12-12,26.9,13.4,2.4,8.2,2.9,-3.6,81,64,42,29.69,29.42,25,8,26,0.00
2013-12-13,35.7,26.2,17.6,28.3,17.6,8.0,93,70,59,29.43,29.28,13,3,19,0.00
2013-12-14,30.6,27.6,23.1,29.1,26.1,20.6,95,94,90,29.30,28.95,18,7,21,0.00
2013-12-15,26.8,18.5,14.5,24.8,14.6,9.7,98,84,77,29.27,29.07,28,10,30,0.00
2013-12-16,21.6,17.9,14.0,19.8,14.5,9.6,93,86,78,29.31,29.16,10,1,14,0.00
2013-12-17,28.7,23.3,18.9,26.1,21.0,16.8,93,91,84,29.25,29.13,21,8,24,0.00
2013-12-18,36.3,25.5,16.1,23.9,18.5,12.6,86,75,60,29.39,29.09,32,7,32,0.00
2013-12-19,44.6,42.4,36.3,40.6,35.5,23.7,86,76,60,29.15,29.03,29,6,38,0.04
2013-12-20,57.8,49.6,43.6,55.7,47.9,40.4,97,94,85,29.03,28.89,26,5,27,0.17
2013-12-21,47.4,37.6,35.5,44.9,36.3,34.2,100,95,89,29.00,28.69,23,6,24,0.30
2013-12-22,38.7,35.5,31.2,37.2,33.8,28.6,100,94,88,29.22,28.59,33,9,33,0.17
2013-12-23,31.2,24.3,11.1,28.6,19.9,5.8,90,83,71,29.57,29.22,23,11,25,0.01
2013-12-24,18.3,11.2,4.4,15.2,6.5,-0.3,92,81,76,29.70,29.57,21,6,21,0.00
2013-12-25,28.5,24.1,17.7,25.6,19.2,13.4,90,81,75,29.60,29.28,23,6,24,0.00
2013-12-26,34.8,28.5,19.5,27.9,22.6,14.7,93,78,69,29.49,29.26,27,8,27,0.00
2013-12-27,44.5,37.4,31.2,34.7,30.5,26.6,84,76,67,29.50,29.33,28,8,28,0.39
2013-12-28,51.3,42.3,37.0,39.1,34.1,31.4,82,73,59,29.33,29.09,23,7,28,0.17
2013-12-29,41.9,35.6,25.7,34.4,29.8,22.5,90,79,72,29.23,28.94,23,9,25,0.03
2013-12-30,25.6,19.7,16.2,22.5,13.8,11.0,88,77,67,29.44,29.23,20,7,21,0.00
2013-12-31,20.7,16.8,11.4,15.7,12.5,7.9,89,83,74,29.52,29.31,25,7,25,0.00
2014-1-1,23.9,20.6,16.7,21.8,17.2,14.0,92,87,84,29.44,29.25,18,7,21,0.00
2014-1-2,17.3,14.6,6.1,15.1,11.5,0.7,91,87,78,29.50,29.14,24,10,25,0.00